Time;durP1;ratioP1;P1;durP2;ratioP2;P2;SDS_P1;SDS_P2;PMS_P1;PMS_P2;Temp;Humidity;BMP_temperature;BMP_pressure;BME280_temperature;BME280_humidity;BME280_pressure;Samples;Min_cycle;Max_cycle;Signal;HPM_P1;HPM_P2
2022/11/16 00:01:35;;;;;;;17.13;11.00;;;13.50;99.90;;;;;;5049834;28;20045;-69
2022/11/16 00:04:03;;;;;;;14.02;10.43;;;13.40;99.90;;;;;;5065730;28;20040;-70
2022/11/16 00:06:31;;;;;;;17.67;12.30;;;13.40;99.90;;;;;;5056210;28;20041;-70
2022/11/16 00:11:53;;;;;;;12.90;10.13;;;13.40;99.90;;;;;;5064794;28;20043;-69
2022/11/16 00:14:22;;;;;;;18.63;12.18;;;13.40;99.90;;;;;;5048774;28;20412;-69
2022/11/16 00:16:50;;;;;;;14.27;9.88;;;13.40;99.90;;;;;;5032324;28;20045;-69
2022/11/16 00:19:18;;;;;;;13.10;9.70;;;13.40;99.90;;;;;;5049710;28;20066;-70
2022/11/16 00:21:46;;;;;;;12.68;9.40;;;13.30;99.90;;;;;;5048147;28;20478;-73
2022/11/16 00:24:15;;;;;;;12.27;8.88;;;13.40;99.90;;;;;;5033007;28;20060;-73
2022/11/16 00:26:44;;;;;;;11.75;8.55;;;13.40;99.90;;;;;;5053954;28;20516;-69
2022/11/16 00:29:18;;;;;;;14.05;9.52;;;13.40;99.90;;;;;;5066651;28;20066;-69
2022/11/16 00:31:47;;;;;;;11.80;8.32;;;13.40;99.90;;;;;;5048078;28;20040;-70
2022/11/16 00:34:15;;;;;;;18.58;10.93;;;13.40;99.90;;;;;;5050077;28;20059;-70
2022/11/16 00:36:43;;;;;;;14.48;9.20;;;13.40;99.90;;;;;;5043670;28;20053;-70
2022/11/16 00:39:12;;;;;;;12.40;9.73;;;13.40;99.90;;;;;;5042758;28;20439;-71
2022/11/16 00:41:41;;;;;;;14.68;9.50;;;13.40;99.90;;;;;;5024665;28;20549;-70
2022/11/16 00:44:10;;;;;;;15.57;9.82;;;13.40;99.90;;;;;;5066043;28;20484;-73
2022/11/16 00:46:38;;;;;;;11.50;8.60;;;13.40;99.90;;;;;;5064755;28;20095;-70
2022/11/16 00:49:06;;;;;;;10.50;8.23;;;13.40;99.90;;;;;;5041897;28;20080;-70
2022/11/16 00:51:35;;;;;;;19.67;9.45;;;13.40;99.90;;;;;;5029204;28;20060;-70
2022/11/16 00:54:05;;;;;;;12.60;10.35;;;13.40;99.90;;;;;;5067669;28;20376;-70
2022/11/16 00:56:35;;;;;;;11.10;7.88;;;13.50;99.90;;;;;;5048373;28;20103;-69
2022/11/16 00:59:04;;;;;;;12.40;8.13;;;13.60;99.90;;;;;;5045657;28;20158;-72
2022/11/16 01:01:32;;;;;;;10.73;7.65;;;13.60;99.90;;;;;;5048698;28;20509;-70
2022/11/16 01:04:00;;;;;;;11.60;7.80;;;13.60;99.90;;;;;;5047057;28;20455;-73
2022/11/16 01:06:28;;;;;;;11.60;7.70;;;13.70;99.90;;;;;;5064443;28;20514;-70
2022/11/16 01:08:55;;;;;;;11.93;8.43;;;13.70;99.90;;;;;;5030242;28;20048;-73
2022/11/16 01:14:10;;;;;;;13.35;8.75;;;13.70;99.90;;;;;;5037588;28;20477;-70
2022/11/16 01:16:38;;;;;;;11.05;9.02;;;13.70;99.90;;;;;;5049010;28;20186;-69
2022/11/16 01:19:06;;;;;;;12.63;7.97;;;13.70;99.90;;;;;;5065106;28;20445;-70
2022/11/16 01:21:34;;;;;;;12.60;8.38;;;13.70;99.90;;;;;;5043934;28;20052;-70
2022/11/16 01:24:02;;;;;;;15.02;9.15;;;13.70;99.90;;;;;;5045910;28;20713;-70
2022/11/16 01:26:30;;;;;;;13.48;8.98;;;13.70;99.90;;;;;;5057775;28;20462;-71
2022/11/16 01:28:58;;;;;;;17.40;7.97;;;13.70;99.90;;;;;;5065268;28;20151;-71
2022/11/16 01:31:29;;;;;;;14.25;9.05;;;13.60;99.90;;;;;;5039745;28;20053;-70
2022/11/16 01:33:58;;;;;;;12.20;8.95;;;13.60;99.90;;;;;;5050897;28;20502;-70
2022/11/16 01:36:28;;;;;;;14.75;9.77;;;13.60;99.90;;;;;;5032764;28;20132;-69
2022/11/16 01:38:58;;;;;;;12.85;8.10;;;13.60;99.90;;;;;;5033845;28;20048;-70
2022/11/16 01:41:29;;;;;;;18.77;11.63;;;13.50;99.90;;;;;;5051273;28;20057;-70
2022/11/16 01:44:05;;;;;;;13.65;9.18;;;13.50;99.90;;;;;;5050834;28;20118;-70
2022/11/16 01:46:47;;;;;;;13.10;8.20;;;13.50;99.90;;;;;;5065493;28;20059;-70
2022/11/16 01:49:19;;;;;;;16.73;10.60;;;13.40;99.90;;;;;;5033702;28;20098;-69
2022/11/16 01:52:05;;;;;;;13.52;8.90;;;13.40;99.90;;;;;;5029893;28;20048;-70
2022/11/16 01:54:39;;;;;;;15.70;10.57;;;13.40;99.90;;;;;;5030579;28;20084;-69
2022/11/16 01:57:10;;;;;;;14.98;9.65;;;13.40;99.90;;;;;;5030574;28;20056;-69
2022/11/16 01:59:44;;;;;;;12.25;9.35;;;13.40;99.90;;;;;;5018367;28;20067;-69
2022/11/16 02:02:16;;;;;;;12.30;8.38;;;13.40;99.90;;;;;;5050289;28;20041;-70
2022/11/16 02:04:46;;;;;;;12.05;7.90;;;13.40;99.90;;;;;;5050676;28;20131;-70
2022/11/16 02:07:30;;;;;;;12.75;9.00;;;13.40;99.90;;;;;;5033811;28;20144;-70
2022/11/16 02:10:27;;;;;;;12.55;8.80;;;13.40;99.90;;;;;;5017259;28;20150;-70
2022/11/16 02:13:20;;;;;;;16.03;10.10;;;13.40;99.90;;;;;;5034590;28;20491;-69
2022/11/16 02:16:13;;;;;;;13.98;9.15;;;13.50;99.90;;;;;;5047910;28;20134;-70
2022/11/16 02:18:56;;;;;;;14.30;9.48;;;13.40;99.90;;;;;;5037127;28;20045;-69
2022/11/16 02:21:40;;;;;;;13.52;8.80;;;13.40;99.90;;;;;;5070443;28;20068;-71
2022/11/16 02:24:23;;;;;;;13.70;9.15;;;13.40;99.90;;;;;;5054095;28;20177;-70
2022/11/16 02:27:27;;;;;;;12.85;9.23;;;13.40;99.90;;;;;;5070536;28;20036;-69
2022/11/16 02:29:55;;;;;;;12.15;7.88;;;13.40;99.90;;;;;;5053693;28;20478;-69
2022/11/16 02:32:35;;;;;;;10.57;7.80;;;13.40;99.90;;;;;;5053293;28;20114;-70
2022/11/16 02:35:06;;;;;;;14.77;8.20;;;13.50;99.90;;;;;;5069919;28;20594;-69
2022/11/16 02:37:39;;;;;;;11.00;7.85;;;13.40;99.90;;;;;;5037078;28;20106;-69
2022/11/16 02:40:11;;;;;;;14.00;8.18;;;13.50;99.90;;;;;;5053657;28;20040;-69
2022/11/16 02:43:09;;;;;;;10.25;6.82;;;13.50;99.90;;;;;;5051473;28;20193;-70
2022/11/16 02:45:42;;;;;;;12.00;7.55;;;13.40;99.90;;;;;;5017189;28;20055;-70
2022/11/16 02:48:22;;;;;;;13.82;8.73;;;13.40;99.90;;;;;;5039395;28;20428;-70
2022/11/16 02:50:52;;;;;;;11.55;7.68;;;13.50;99.90;;;;;;5069866;28;20097;-70
2022/11/16 02:53:20;;;;;;;12.60;8.93;;;13.50;99.90;;;;;;5069842;28;20067;-69
2022/11/16 02:55:48;;;;;;;13.45;8.93;;;13.50;99.90;;;;;;5069523;28;20375;-71
2022/11/16 02:58:24;;;;;;;13.60;7.57;;;13.50;99.90;;;;;;5069547;28;20045;-69
2022/11/16 03:00:52;;;;;;;13.40;8.20;;;13.60;99.90;;;;;;5069616;28;20044;-69
2022/11/16 03:03:41;;;;;;;15.05;8.52;;;13.60;99.90;;;;;;5070939;28;20197;-70
2022/11/16 03:06:16;;;;;;;13.07;8.07;;;13.50;99.90;;;;;;5069560;28;20056;-71
2022/11/16 03:08:52;;;;;;;12.20;7.85;;;13.60;99.90;;;;;;5069856;28;20071;-71
2022/11/16 03:14:13;;;;;;;9.55;6.57;;;13.60;99.90;;;;;;5049421;28;20440;-69
2022/11/16 03:16:52;;;;;;;13.90;8.55;;;13.60;99.90;;;;;;5049416;28;20495;-69
2022/11/16 03:19:44;;;;;;;12.50;7.80;;;13.60;99.90;;;;;;5032080;28;20148;-70
2022/11/16 03:22:22;;;;;;;13.30;9.27;;;13.50;99.90;;;;;;5049451;28;20069;-70
2022/11/16 03:24:50;;;;;;;12.30;8.48;;;13.50;99.90;;;;;;5048917;28;20059;-71
2022/11/16 03:27:30;;;;;;;10.95;7.57;;;13.50;99.90;;;;;;5048746;28;20084;-69
2022/11/16 03:30:06;;;;;;;12.50;7.50;;;13.60;99.90;;;;;;5032774;28;20055;-71
2022/11/16 03:32:53;;;;;;;12.05;8.07;;;13.60;99.90;;;;;;5048100;28;20466;-70
2022/11/16 03:35:32;;;;;;;;;;;13.60;99.90;;;;;;5052209;28;20518;-70
2022/11/16 03:38:01;;;;;;;11.90;7.47;;;13.70;99.90;;;;;;5052064;28;20284;-70
2022/11/16 03:40:32;;;;;;;14.85;9.13;;;13.70;99.90;;;;;;5068478;28;20111;-69
2022/11/16 03:43:03;;;;;;;17.52;6.50;;;13.70;99.90;;;;;;5052195;28;20056;-70
2022/11/16 03:45:31;;;;;;;11.00;7.15;;;13.70;99.90;;;;;;5051657;28;20047;-69
2022/11/16 03:47:59;;;;;;;10.05;6.78;;;13.70;99.90;;;;;;5068275;28;20093;-70
2022/11/16 03:50:27;;;;;;;11.75;7.47;;;13.70;99.90;;;;;;5068573;28;20132;-69
2022/11/16 03:52:55;;;;;;;11.48;6.80;;;13.70;99.90;;;;;;5070067;28;20055;-70
2022/11/16 03:55:22;;;;;;;8.65;6.13;;;13.80;99.90;;;;;;5068309;28;20060;-70
2022/11/16 03:57:50;;;;;;;9.52;7.13;;;13.80;99.90;;;;;;5051779;28;20482;-70
2022/11/16 04:00:18;;;;;;;8.63;6.38;;;13.80;99.90;;;;;;5066153;28;20451;-69
2022/11/16 04:02:46;;;;;;;12.30;7.03;;;13.80;99.90;;;;;;5049469;28;20079;-71
2022/11/16 04:24:53;;;;;;;20.83;7.10;;;14.00;99.90;;;;;;5051181;28;20072;-70
2022/11/16 04:30:15;;;;;;;11.35;6.55;;;14.00;99.90;;;;;;5067842;28;20044;-73
2022/11/16 04:38:17;;;;;;;12.63;6.77;;;14.00;99.90;;;;;;5067279;28;20053;-69
2022/11/16 04:40:45;;;;;;;8.35;6.45;;;14.00;99.90;;;;;;5067128;28;20055;-70
2022/11/16 04:43:12;;;;;;;11.77;6.32;;;14.00;99.90;;;;;;5067650;28;20529;-69
2022/11/16 04:48:36;;;;;;;10.95;6.35;;;14.10;99.90;;;;;;5049992;28;20052;-69
2022/11/16 04:51:04;;;;;;;10.65;6.75;;;14.20;99.90;;;;;;5067317;28;20056;-70
2022/11/16 04:53:33;;;;;;;11.02;6.05;;;14.20;99.90;;;;;;5067513;28;20051;-70
2022/11/16 04:56:08;;;;;;;12.25;7.65;;;14.30;99.90;;;;;;5051778;28;20060;-70
2022/11/16 04:58:37;;;;;;;12.77;8.23;;;14.30;99.90;;;;;;5067190;28;20052;-70
2022/11/16 05:01:04;;;;;;;12.60;6.82;;;14.20;99.90;;;;;;5066709;28;20150;-70
2022/11/16 05:03:32;;;;;;;9.27;5.97;;;14.20;99.90;;;;;;5047891;28;20037;-70
2022/11/16 05:06:00;;;;;;;10.70;6.90;;;14.30;99.90;;;;;;5029861;28;20131;-71
2022/11/16 05:08:28;;;;;;;10.02;5.30;;;14.30;99.90;;;;;;5021674;28;20045;-70
2022/11/16 05:10:57;;;;;;;9.63;5.35;;;14.30;99.90;;;;;;5065622;28;20152;-70
2022/11/16 05:13:24;;;;;;;11.05;7.03;;;14.30;99.90;;;;;;5064856;28;20049;-70
2022/11/16 05:15:52;;;;;;;7.18;5.43;;;14.30;99.90;;;;;;5027627;28;20367;-70
2022/11/16 05:18:20;;;;;;;6.07;5.07;;;14.30;99.90;;;;;;5045344;28;20511;-70
2022/11/16 05:20:59;;;;;;;8.25;5.15;;;14.30;99.90;;;;;;5049189;28;20545;-70
2022/11/16 05:26:19;;;;;;;9.77;6.22;;;14.30;99.90;;;;;;5046861;28;20131;-70
2022/11/16 05:28:48;;;;;;;10.30;5.85;;;14.30;99.90;;;;;;5054397;28;20064;-70
2022/11/16 05:31:15;;;;;;;8.63;5.35;;;14.30;99.90;;;;;;5048412;28;20044;-70
2022/11/16 05:33:43;;;;;;;9.23;5.65;;;14.30;99.90;;;;;;5041133;28;20885;-70
2022/11/16 05:36:13;;;;;;;12.90;6.40;;;14.40;99.90;;;;;;5060131;28;20206;-70
2022/11/16 05:38:40;;;;;;;11.68;7.18;;;14.40;99.90;;;;;;5031682;28;20048;-69
2022/11/16 05:41:08;;;;;;;10.70;6.82;;;14.40;99.90;;;;;;5065621;28;20040;-70
2022/11/16 05:43:35;;;;;;;10.23;7.40;;;14.40;99.90;;;;;;5031500;28;20052;-72
2022/11/16 05:46:22;;;;;;;10.90;6.38;;;14.40;99.90;;;;;;5063906;28;20041;-72
2022/11/16 05:48:50;;;;;;;11.57;6.63;;;14.40;99.90;;;;;;5053284;28;20402;-70
2022/11/16 05:51:17;;;;;;;9.98;6.53;;;14.50;99.90;;;;;;5048104;28;20076;-70
2022/11/16 05:53:45;;;;;;;9.45;5.80;;;14.50;99.90;;;;;;5064714;28;20052;-71
2022/11/16 05:56:18;;;;;;;10.23;5.47;;;14.50;99.90;;;;;;5052176;28;20041;-70
2022/11/16 05:58:46;;;;;;;8.80;6.40;;;14.60;99.90;;;;;;5052264;28;20095;-70
2022/11/16 06:01:14;;;;;;;10.13;6.38;;;14.70;99.90;;;;;;5047720;28;20045;-72
2022/11/16 06:03:42;;;;;;;11.32;6.43;;;14.70;99.90;;;;;;5061973;28;20040;-71
2022/11/16 06:06:10;;;;;;;11.60;7.07;;;14.70;99.90;;;;;;5064083;28;20124;-71
2022/11/16 06:08:38;;;;;;;10.30;6.85;;;14.80;99.90;;;;;;5058942;28;20033;-70
2022/11/16 06:11:10;;;;;;;13.27;7.18;;;14.80;99.90;;;;;;5026094;28;20087;-70
2022/11/16 06:13:38;;;;;;;9.75;6.70;;;14.80;99.90;;;;;;5047492;28;20098;-70
2022/11/16 06:16:06;;;;;;;9.73;6.47;;;15.00;99.90;;;;;;5031825;28;20099;-70
2022/11/16 06:18:43;;;;;;;8.75;6.90;;;15.30;99.90;;;;;;5048094;28;20080;-70
2022/11/16 06:21:14;;;;;;;8.50;6.20;;;15.40;99.90;;;;;;5049858;28;20076;-70
2022/11/16 06:23:42;;;;;;;9.73;5.15;;;15.60;99.90;;;;;;5050031;28;20509;-69
2022/11/16 06:26:10;;;;;;;10.57;5.53;;;15.60;99.90;;;;;;5065710;28;20510;-70
2022/11/16 06:28:39;;;;;;;10.52;5.97;;;15.50;99.90;;;;;;5049562;28;20048;-69
2022/11/16 06:31:06;;;;;;;9.50;5.40;;;15.50;99.90;;;;;;5033421;28;20048;-69
2022/11/16 06:33:39;;;;;;;9.77;5.50;;;15.40;99.90;;;;;;5034396;28;20495;-69
2022/11/16 06:36:14;;;;;;;10.00;6.35;;;15.40;99.90;;;;;;5034074;28;20064;-73
2022/11/16 06:38:43;;;;;;;7.68;4.88;;;15.50;99.90;;;;;;5049792;28;20059;-71
2022/11/16 06:41:12;;;;;;;12.95;5.88;;;15.80;99.90;;;;;;5032936;28;20362;-69
2022/11/16 06:43:44;;;;;;;11.07;5.65;;;16.20;99.90;;;;;;5066035;28;20052;-69
2022/11/16 06:46:14;;;;;;;7.95;4.80;;;16.60;99.90;;;;;;5036826;28;20044;-70
2022/11/16 06:48:41;;;;;;;8.13;5.45;;;17.00;99.90;;;;;;5036431;28;20131;-69
2022/11/16 06:51:12;;;;;;;10.40;4.85;;;17.30;99.90;;;;;;5069574;28;20119;-69
2022/11/16 06:53:40;;;;;;;7.28;4.38;;;17.70;99.90;;;;;;5034624;28;20052;-69
2022/11/16 06:56:11;;;;;;;6.78;3.97;;;17.90;99.90;;;;;;5069847;28;20051;-69
2022/11/16 06:58:43;;;;;;;8.55;4.07;;;18.10;99.90;;;;;;5053524;28;20066;-68
2022/11/16 07:01:12;;;;;;;7.45;3.30;;;18.20;99.90;;;;;;5069273;28;20049;-70
2022/11/16 07:03:42;;;;;;;11.27;5.00;;;18.10;99.90;;;;;;5069166;28;20233;-69
2022/11/16 07:06:12;;;;;;;9.15;4.68;;;18.00;99.90;;;;;;5069274;28;20149;-69
2022/11/16 07:08:43;;;;;;;8.35;5.45;;;17.90;99.90;;;;;;5036848;28;20375;-71
2022/11/16 07:11:12;;;;;;;8.00;5.00;;;18.10;99.90;;;;;;5052417;28;20044;-69
2022/11/16 07:13:39;;;;;;;6.20;4.22;;;18.10;99.90;;;;;;5052898;28;20551;-69
2022/11/16 07:16:10;;;;;;;10.40;5.07;;;18.30;99.90;;;;;;5052221;28;20037;-69
2022/11/16 07:18:42;;;;;;;7.40;4.40;;;18.50;99.90;;;;;;5052104;28;20087;-69
2022/11/16 07:21:13;;;;;;;9.02;4.68;;;18.60;99.90;;;;;;5069078;28;20043;-68
2022/11/16 07:23:41;;;;;;;8.95;4.35;;;18.60;99.90;;;;;;5053966;28;20407;-68
2022/11/16 07:26:12;;;;;;;6.68;4.03;;;18.70;99.90;;;;;;5033413;28;20053;-69
2022/11/16 07:28:49;;;;;;;7.72;4.38;;;18.80;99.90;;;;;;5017426;28;20045;-69
2022/11/16 07:31:20;;;;;;;6.22;4.35;;;18.80;99.90;;;;;;5033318;28;20523;-69
2022/11/16 07:34:07;;;;;;;8.18;4.68;;;18.80;99.90;;;;;;5032576;28;20053;-69
2022/11/16 07:36:43;;;;;;;7.63;4.32;;;18.80;99.90;;;;;;5017043;28;20053;-69
2022/11/16 07:39:11;;;;;;;7.70;5.30;;;18.70;99.90;;;;;;5016177;28;20076;-69
2022/11/16 07:41:43;;;;;;;9.23;4.88;;;18.60;99.90;;;;;;5048558;28;20029;-70
2022/11/16 07:44:25;;;;;;;6.97;4.63;;;18.40;99.90;;;;;;5014838;28;20462;-69
2022/11/16 07:47:09;;;;;;;9.00;5.35;;;18.40;99.90;;;;;;5048688;28;20110;-71
2022/11/16 07:49:36;;;;;;;10.27;5.72;;;18.40;99.90;;;;;;5048664;28;20495;-70
2022/11/16 07:52:12;;;;;;;10.00;6.07;;;18.50;99.90;;;;;;5031103;28;20056;-69
2022/11/16 07:55:06;;;;;;;10.15;6.90;;;18.50;99.90;;;;;;5046040;28;20052;-69
2022/11/16 07:57:34;;;;;;;11.82;6.50;;;18.50;99.90;;;;;;5048558;28;20056;-69
2022/11/16 08:00:05;;;;;;;8.40;6.05;;;18.50;99.90;;;;;;5048530;28;20052;-69
2022/11/16 08:02:39;;;;;;;9.90;5.97;;;18.70;99.90;;;;;;5049045;28;20076;-69
2022/11/16 08:05:11;;;;;;;11.63;6.22;;;18.90;99.90;;;;;;5048694;28;20464;-70
2022/11/16 08:07:39;;;;;;;8.40;5.78;;;19.20;99.90;;;;;;5047250;28;20033;-69
2022/11/16 08:10:07;;;;;;;8.95;5.93;;;19.30;99.90;;;;;;5030702;28;20186;-68
2022/11/16 08:12:35;;;;;;;9.02;5.50;;;19.40;99.90;;;;;;5047552;28;20071;-70
2022/11/16 08:15:03;;;;;;;10.65;7.05;;;19.50;99.90;;;;;;5030860;28;20057;-70
2022/11/16 08:17:31;;;;;;;8.30;5.25;;;19.60;99.90;;;;;;5031154;28;20122;-70
2022/11/16 08:19:59;;;;;;;8.93;5.60;;;19.60;99.90;;;;;;5047920;28;20053;-70
2022/11/16 08:22:28;;;;;;;10.98;5.18;;;19.70;99.90;;;;;;5047902;28;20040;-68
2022/11/16 08:24:56;;;;;;;10.95;5.32;;;19.80;99.90;;;;;;5030824;28;20048;-70
2022/11/16 08:27:25;;;;;;;8.13;4.93;;;19.90;99.90;;;;;;5048113;28;20048;-70
2022/11/16 08:29:55;;;;;;;8.80;4.22;;;20.00;99.90;;;;;;5031035;28;20762;-70
2022/11/16 08:32:23;;;;;;;7.80;5.30;;;20.00;99.90;;;;;;5047662;28;20115;-69
2022/11/16 08:34:53;;;;;;;10.27;5.68;;;19.90;99.90;;;;;;5048269;28;20073;-69
2022/11/16 08:37:21;;;;;;;6.60;4.50;;;19.90;99.90;;;;;;5031108;28;20159;-69
2022/11/16 08:39:49;;;;;;;8.27;4.10;;;19.70;99.90;;;;;;5030717;28;20053;-69
2022/11/16 08:42:18;;;;;;;10.43;5.57;;;19.80;99.90;;;;;;5029918;28;20571;-72
2022/11/16 08:44:48;;;;;;;7.72;5.22;;;19.80;99.90;;;;;;5053932;28;20479;-70
2022/11/16 08:47:18;;;;;;;8.35;4.65;;;20.00;99.90;;;;;;5070430;28;20044;-70
2022/11/16 08:49:57;;;;;;;10.95;5.53;;;19.90;99.90;;;;;;5053890;28;20039;-69
2022/11/16 08:52:28;;;;;;;7.22;4.25;;;20.00;99.90;;;;;;5053233;28;20048;-69
2022/11/16 08:54:58;;;;;;;5.97;4.32;;;20.20;99.90;;;;;;5054027;28;20873;-69
2022/11/16 08:57:26;;;;;;;7.97;4.85;;;20.40;99.90;;;;;;5053687;28;20040;-69
2022/11/16 08:59:58;;;;;;;8.80;4.07;;;20.50;99.90;;;;;;5053333;28;20144;-69
2022/11/16 09:02:25;;;;;;;7.65;4.40;;;20.50;99.90;;;;;;5053258;28;20066;-69
2022/11/16 09:04:53;;;;;;;10.25;5.03;;;20.10;99.90;;;;;;5070446;28;20036;-70
2022/11/16 09:07:20;;;;;;;7.38;4.45;;;20.10;99.90;;;;;;5053230;28;20075;-71
2022/11/16 09:09:48;;;;;;;9.57;4.22;;;20.20;99.90;;;;;;5088720;28;20427;-69
2022/11/16 09:12:16;;;;;;;6.95;4.18;;;20.30;99.90;;;;;;5070017;28;20043;-69
2022/11/16 09:14:44;;;;;;;6.47;3.90;;;20.10;99.90;;;;;;5088299;28;20401;-69
2022/11/16 09:17:11;;;;;;;7.75;3.90;;;20.10;99.90;;;;;;5037297;28;20040;-69
2022/11/16 09:19:39;;;;;;;9.05;4.85;;;20.00;99.90;;;;;;5070460;28;20040;-69
2022/11/16 09:22:06;;;;;;;11.00;5.32;;;19.90;99.90;;;;;;5088030;28;20551;-71
2022/11/16 09:24:34;;;;;;;7.07;4.53;;;20.10;99.90;;;;;;5087942;28;20063;-69
2022/11/16 09:27:01;;;;;;;11.18;3.97;;;20.10;99.90;;;;;;5070546;28;20044;-70
2022/11/16 09:29:29;;;;;;;6.88;4.05;;;20.20;99.90;;;;;;5048422;28;20071;-69
2022/11/16 09:31:57;;;;;;;5.05;3.20;;;20.40;99.90;;;;;;5059464;28;20044;-69
2022/11/16 09:34:25;;;;;;;7.10;4.43;;;20.70;99.90;;;;;;5067178;28;20167;-69
2022/11/16 09:36:52;;;;;;;5.28;3.45;;;20.90;99.90;;;;;;5068873;28;20146;-69
2022/11/16 09:39:20;;;;;;;6.60;4.00;;;21.30;99.90;;;;;;5069982;28;20502;-69
2022/11/16 09:42:15;;;;;;;6.03;3.55;;;21.30;99.90;;;;;;5072212;28;20048;-69
2022/11/16 09:44:57;;;;;;;6.95;4.35;;;21.50;99.90;;;;;;5053855;28;20040;-68
2022/11/16 09:47:47;;;;;;;7.25;4.45;;;21.30;99.90;;;;;;5070451;28;20119;-69
2022/11/16 09:50:26;;;;;;;9.95;4.03;;;21.40;99.90;;;;;;5053057;28;20806;-70
2022/11/16 09:52:58;;;;;;;10.30;3.75;;;21.30;99.90;;;;;;5069934;28;20598;-68
2022/11/16 09:55:34;;;;;;;5.45;4.15;;;21.20;99.90;;;;;;5053571;28;20052;-68
2022/11/16 09:58:10;;;;;;;8.35;3.25;;;21.30;99.90;;;;;;5069936;28;20119;-68
2022/11/16 10:00:44;;;;;;;9.90;3.40;;;21.40;99.90;;;;;;5069767;28;20052;-70
2022/11/16 10:03:13;;;;;;;8.07;4.07;;;21.50;99.90;;;;;;5070274;28;20131;-68
2022/11/16 10:06:05;;;;;;;8.55;4.38;;;21.40;99.90;;;;;;5087834;28;20056;-69
2022/11/16 10:08:47;;;;;;;5.75;3.50;;;21.50;99.90;;;;;;5053143;28;20787;-70
2022/11/16 10:11:51;;;;;;;5.40;3.70;;;21.60;99.90;;;;;;5053249;28;20055;-69
2022/11/16 10:14:30;;;;;;;6.03;4.22;;;21.70;99.90;;;;;;5069971;28;20044;-69
2022/11/16 10:17:04;;;;;;;5.85;4.45;;;21.80;99.90;;;;;;5069553;28;20054;-68
2022/11/16 10:19:45;;;;;;;5.20;3.50;;;21.70;99.90;;;;;;5039637;28;20718;-69
2022/11/16 10:22:19;;;;;;;6.03;3.80;;;21.40;99.90;;;;;;5040108;28;20501;-69
2022/11/16 10:24:46;;;;;;;6.03;4.78;;;21.30;99.90;;;;;;5089937;28;20470;-68
2022/11/16 10:27:17;;;;;;;7.70;4.38;;;21.30;99.90;;;;;;5073935;28;20078;-68
2022/11/16 10:30:06;;;;;;;6.10;4.15;;;21.30;99.90;;;;;;5073713;28;20048;-68
2022/11/16 10:32:45;;;;;;;5.88;4.10;;;21.40;99.90;;;;;;5056852;28;20047;-69
2022/11/16 10:35:15;;;;;;;7.05;3.35;;;21.50;99.90;;;;;;5057351;28;20052;-69
2022/11/16 10:37:48;;;;;;;7.47;3.95;;;21.60;99.90;;;;;;5073765;28;20078;-69
2022/11/16 10:40:24;;;;;;;5.55;3.17;;;21.70;99.90;;;;;;5073168;28;20078;-69
2022/11/16 10:43:16;;;;;;;10.57;4.45;;;21.70;99.90;;;;;;5057013;28;20123;-69
2022/11/16 10:45:48;;;;;;;7.15;3.75;;;21.60;99.90;;;;;;5047913;28;20106;-68
2022/11/16 10:48:40;;;;;;;5.60;3.25;;;21.70;99.90;;;;;;5053885;28;20105;-69
2022/11/16 10:51:09;;;;;;;9.38;3.90;;;21.70;99.90;;;;;;5037072;28;20048;-68
2022/11/16 10:53:39;;;;;;;4.68;2.88;;;21.80;99.90;;;;;;5051560;28;20058;-69
2022/11/16 10:56:20;;;;;;;6.00;3.13;;;21.80;99.90;;;;;;5032994;28;20127;-70
2022/11/16 10:59:02;;;;;;;5.63;3.67;;;21.90;99.90;;;;;;5083906;28;20052;-69
2022/11/16 11:01:31;;;;;;;7.65;3.88;;;22.00;99.90;;;;;;5063875;28;20044;-69
2022/11/16 11:04:16;;;;;;;8.68;3.67;;;22.00;99.90;;;;;;5053379;28;20062;-69
2022/11/16 11:06:46;;;;;;;6.20;3.33;;;22.00;99.90;;;;;;5024416;28;20056;-69
2022/11/16 11:09:26;;;;;;;6.18;4.90;;;22.00;99.90;;;;;;5068598;28;20078;-69
2022/11/16 11:15:12;;;;;;;5.40;3.15;;;21.90;99.90;;;;;;5069957;28;20359;-71
2022/11/16 11:17:42;;;;;;;5.03;3.20;;;21.90;99.90;;;;;;5057637;28;20086;-69
2022/11/16 11:20:16;;;;;;;5.43;2.92;;;22.00;99.90;;;;;;5044458;28;20130;-69
2022/11/16 11:22:59;;;;;;;4.97;3.08;;;22.00;99.90;;;;;;5042789;28;20048;-68
2022/11/16 11:26:01;;;;;;;6.18;2.92;;;22.00;99.90;;;;;;5070286;28;20036;-68
2022/11/16 11:28:30;;;;;;;10.32;2.85;;;21.90;99.90;;;;;;5063776;28;20422;-70
2022/11/16 11:30:58;;;;;;;7.20;2.78;;;21.90;99.90;;;;;;5050119;28;20071;-70
2022/11/16 11:33:29;;;;;;;5.07;2.70;;;21.70;99.90;;;;;;5054347;28;20456;-70
2022/11/16 11:36:03;;;;;;;6.90;2.33;;;21.50;99.90;;;;;;5070794;28;20047;-68
2022/11/16 11:38:31;;;;;;;6.97;3.40;;;21.60;99.90;;;;;;5045522;28;20447;-69
2022/11/16 11:41:03;;;;;;;4.15;2.47;;;21.70;99.90;;;;;;5038620;28;20201;-69
2022/11/16 11:43:34;;;;;;;5.53;2.75;;;21.90;99.90;;;;;;5034921;28;20052;-70
2022/11/16 11:46:14;;;;;;;10.90;4.13;;;22.20;99.90;;;;;;5037241;28;20051;-69
2022/11/16 11:49:09;;;;;;;8.18;2.97;;;22.20;99.90;;;;;;5069784;28;20059;-71
2022/11/16 11:51:41;;;;;;;5.45;2.90;;;22.10;99.90;;;;;;5051502;28;20524;-70
2022/11/16 11:54:35;;;;;;;8.43;2.63;;;22.00;99.90;;;;;;5055005;28;20350;-70
2022/11/16 11:57:10;;;;;;;5.28;3.13;;;22.00;99.90;;;;;;5035321;28;20083;-68
2022/11/16 11:59:38;;;;;;;9.35;3.38;;;21.90;99.90;;;;;;5047796;28;20844;-68
2022/11/16 12:02:06;;;;;;;5.70;3.10;;;21.70;99.90;;;;;;5048073;28;20052;-69
2022/11/16 12:05:10;;;;;;;7.68;3.05;;;21.50;99.90;;;;;;5067162;28;20113;-71
2022/11/16 12:07:55;;;;;;;5.47;3.15;;;21.30;99.90;;;;;;5078537;28;20040;-69
2022/11/16 12:10:45;;;;;;;4.95;2.97;;;21.30;99.90;;;;;;5045020;28;20449;-69
2022/11/16 12:13:24;;;;;;;5.82;3.33;;;21.30;99.90;;;;;;5067606;28;20125;-69
2022/11/16 12:15:52;;;;;;;5.15;3.35;;;21.30;99.90;;;;;;5070071;28;20120;-68
2022/11/16 12:18:55;;;;;;;6.13;3.38;;;21.30;99.90;;;;;;5052847;28;20490;-69
2022/11/16 12:21:45;;;;;;;8.15;3.65;;;21.20;99.90;;;;;;5042837;28;20042;-71
2022/11/16 12:24:50;;;;;;;6.38;3.40;;;21.10;99.90;;;;;;5052644;28;20378;-69
2022/11/16 12:27:27;;;;;;;4.25;2.63;;;21.10;99.90;;;;;;5070321;28;20044;-69
2022/11/16 12:30:06;;;;;;;5.25;2.70;;;21.10;99.90;;;;;;5049178;28;20052;-70
2022/11/16 12:32:40;;;;;;;6.10;3.17;;;21.00;99.90;;;;;;5052209;28;20117;-69
2022/11/16 12:35:32;;;;;;;7.45;3.25;;;20.90;99.90;;;;;;5027389;28;20036;-69
2022/11/16 12:38:26;;;;;;;5.78;3.63;;;20.90;99.90;;;;;;5069768;28;20039;-69
2022/11/16 12:41:12;;;;;;;7.60;4.80;;;20.90;99.90;;;;;;5053378;28;20118;-68
2022/11/16 12:43:58;;;;;;;5.97;3.57;;;20.80;99.90;;;;;;5048731;28;20078;-70
2022/11/16 12:46:34;;;;;;;9.80;3.42;;;20.80;99.90;;;;;;5031639;28;20522;-69
2022/11/16 12:49:08;;;;;;;8.90;4.28;;;20.80;99.90;;;;;;5057041;28;20048;-69
2022/11/16 12:51:41;;;;;;;5.13;3.35;;;20.70;99.90;;;;;;5066575;28;20409;-69
2022/11/16 12:54:11;;;;;;;7.28;3.50;;;20.60;99.90;;;;;;5066914;28;20055;-69
2022/11/16 12:56:51;;;;;;;5.72;3.10;;;20.60;99.90;;;;;;5051637;28;20056;-70
2022/11/16 12:59:38;;;;;;;6.93;3.38;;;20.50;99.90;;;;;;5049541;28;20040;-69
2022/11/16 13:02:31;;;;;;;5.65;2.95;;;20.50;99.90;;;;;;5052998;28;20125;-69
2022/11/16 13:05:16;;;;;;;5.57;2.83;;;20.50;99.90;;;;;;5063875;28;20063;-69
2022/11/16 13:07:52;;;;;;;5.22;3.13;;;20.40;99.90;;;;;;5049838;28;20060;-69
2022/11/16 13:10:27;;;;;;;5.45;2.92;;;20.30;99.90;;;;;;5068512;28;20143;-69
2022/11/16 13:13:09;;;;;;;9.83;3.23;;;20.30;99.90;;;;;;5053078;28;20418;-69
2022/11/16 13:16:00;;;;;;;4.85;2.67;;;20.20;99.90;;;;;;5041281;28;20771;-69
2022/11/16 13:18:31;;;;;;;6.45;2.60;;;20.20;99.90;;;;;;5052642;28;20166;-68
2022/11/16 13:21:20;;;;;;;6.90;2.97;;;20.10;99.90;;;;;;5047645;28;20050;-68
2022/11/16 13:24:18;;;;;;;7.68;2.60;;;20.10;99.90;;;;;;5034487;28;20089;-68
2022/11/16 13:26:58;;;;;;;5.53;3.55;;;20.00;99.90;;;;;;5035217;28;20110;-69
2022/11/16 13:29:41;;;;;;;6.53;3.08;;;19.90;99.90;;;;;;5035790;28;20152;-70
2022/11/16 13:32:18;;;;;;;6.00;3.40;;;19.90;99.90;;;;;;5074078;28;20073;-68
2022/11/16 13:34:47;;;;;;;6.75;2.78;;;19.80;99.90;;;;;;5050941;28;20436;-68
2022/11/16 13:37:33;;;;;;;4.72;2.30;;;19.70;99.90;;;;;;5051300;28;20075;-68
2022/11/16 13:40:01;;;;;;;4.88;2.83;;;19.70;99.90;;;;;;5059032;28;20044;-69
2022/11/16 13:42:31;;;;;;;6.63;3.63;;;19.70;99.90;;;;;;5046105;28;20128;-69
2022/11/16 13:45:17;;;;;;;3.90;2.47;;;19.60;99.90;;;;;;5061395;28;20084;-69
2022/11/16 13:47:51;;;;;;;5.05;3.60;;;19.60;99.90;;;;;;5048011;28;20068;-68
2022/11/16 13:50:30;;;;;;;9.15;3.33;;;19.50;99.90;;;;;;5050816;28;20518;-68
2022/11/16 13:53:07;;;;;;;11.50;4.13;;;19.50;99.90;;;;;;5050708;28;20445;-68
2022/11/16 13:56:00;;;;;;;5.63;3.20;;;19.50;99.90;;;;;;5068170;28;20125;-68
2022/11/16 13:58:30;;;;;;;5.95;2.65;;;19.40;99.90;;;;;;5068977;28;20060;-69
2022/11/16 14:01:07;;;;;;;6.38;3.53;;;19.40;99.90;;;;;;5067764;28;20419;-69
2022/11/16 14:03:39;;;;;;;6.00;3.42;;;19.30;99.90;;;;;;5072661;28;20159;-68